sensor_id;sensor_type;location;lat;lon;timestamp;P1;durP1;ratioP1;P2;durP2;ratioP2
19004;SDS011;9635;52.078;8.648;2022-12-16T00:02:17;52.80;;;21.88;;
19004;SDS011;9635;52.078;8.648;2022-12-16T00:07:22;44.33;;;20.00;;
19004;SDS011;9635;52.078;8.648;2022-12-16T00:12:25;47.17;;;20.45;;
19004;SDS011;9635;52.078;8.648;2022-12-16T00:17:28;52.72;;;20.80;;
19004;SDS011;9635;52.078;8.648;2022-12-16T00:22:33;52.88;;;22.00;;
19004;SDS011;9635;52.078;8.648;2022-12-16T00:27:36;52.80;;;21.83;;
19004;SDS011;9635;52.078;8.648;2022-12-16T00:32:39;49.45;;;20.88;;
19004;SDS011;9635;52.078;8.648;2022-12-16T00:37:43;51.35;;;21.02;;
19004;SDS011;9635;52.078;8.648;2022-12-16T00:42:48;46.03;;;20.35;;
19004;SDS011;9635;52.078;8.648;2022-12-16T00:47:52;49.55;;;20.38;;
19004;SDS011;9635;52.078;8.648;2022-12-16T00:52:57;49.17;;;21.38;;
19004;SDS011;9635;52.078;8.648;2022-12-16T00:58:00;42.50;;;18.90;;
19004;SDS011;9635;52.078;8.648;2022-12-16T01:03:03;48.42;;;19.30;;
19004;SDS011;9635;52.078;8.648;2022-12-16T01:08:08;44.33;;;21.42;;
19004;SDS011;9635;52.078;8.648;2022-12-16T01:13:11;44.08;;;19.33;;
19004;SDS011;9635;52.078;8.648;2022-12-16T01:18:14;47.92;;;20.20;;
19004;SDS011;9635;52.078;8.648;2022-12-16T01:23:19;42.88;;;20.13;;
19004;SDS011;9635;52.078;8.648;2022-12-16T01:28:23;42.75;;;19.10;;
19004;SDS011;9635;52.078;8.648;2022-12-16T01:33:26;45.40;;;19.80;;
19004;SDS011;9635;52.078;8.648;2022-12-16T01:38:32;43.70;;;19.83;;
19004;SDS011;9635;52.078;8.648;2022-12-16T01:43:35;48.53;;;20.67;;
19004;SDS011;9635;52.078;8.648;2022-12-16T01:48:42;46.00;;;20.77;;
19004;SDS011;9635;52.078;8.648;2022-12-16T01:53:49;43.45;;;20.30;;
19004;SDS011;9635;52.078;8.648;2022-12-16T01:58:55;44.10;;;19.23;;
19004;SDS011;9635;52.078;8.648;2022-12-16T02:04:00;46.47;;;19.25;;
19004;SDS011;9635;52.078;8.648;2022-12-16T02:09:06;42.55;;;18.70;;
19004;SDS011;9635;52.078;8.648;2022-12-16T02:14:17;43.05;;;19.30;;
19004;SDS011;9635;52.078;8.648;2022-12-16T02:19:41;44.05;;;17.65;;
19004;SDS011;9635;52.078;8.648;2022-12-16T02:25:14;41.70;;;19.98;;
19004;SDS011;9635;52.078;8.648;2022-12-16T02:31:08;46.50;;;19.00;;
19004;SDS011;9635;52.078;8.648;2022-12-16T02:36:24;43.80;;;19.15;;
19004;SDS011;9635;52.078;8.648;2022-12-16T02:41:39;50.28;;;21.13;;
19004;SDS011;9635;52.078;8.648;2022-12-16T02:46:52;42.55;;;19.85;;
19004;SDS011;9635;52.078;8.648;2022-12-16T02:51:57;42.37;;;19.97;;
19004;SDS011;9635;52.078;8.648;2022-12-16T02:57:04;48.08;;;20.23;;
19004;SDS011;9635;52.078;8.648;2022-12-16T03:02:21;47.15;;;19.77;;
19004;SDS011;9635;52.078;8.648;2022-12-16T03:07:30;37.88;;;18.40;;
19004;SDS011;9635;52.078;8.648;2022-12-16T03:12:36;46.60;;;18.42;;
19004;SDS011;9635;52.078;8.648;2022-12-16T03:17:44;41.42;;;18.63;;
19004;SDS011;9635;52.078;8.648;2022-12-16T03:22:50;45.10;;;19.23;;
19004;SDS011;9635;52.078;8.648;2022-12-16T03:27:57;42.25;;;17.90;;
19004;SDS011;9635;52.078;8.648;2022-12-16T03:33:23;47.78;;;18.70;;
19004;SDS011;9635;52.078;8.648;2022-12-16T03:38:30;40.55;;;18.33;;
19004;SDS011;9635;52.078;8.648;2022-12-16T03:43:35;41.53;;;18.85;;
19004;SDS011;9635;52.078;8.648;2022-12-16T03:48:53;41.97;;;18.92;;
19004;SDS011;9635;52.078;8.648;2022-12-16T03:54:12;43.83;;;18.63;;
19004;SDS011;9635;52.078;8.648;2022-12-16T03:59:33;45.33;;;19.87;;
19004;SDS011;9635;52.078;8.648;2022-12-16T04:04:40;43.28;;;17.80;;
19004;SDS011;9635;52.078;8.648;2022-12-16T04:09:43;38.83;;;18.15;;
19004;SDS011;9635;52.078;8.648;2022-12-16T04:14:46;41.97;;;18.77;;
19004;SDS011;9635;52.078;8.648;2022-12-16T04:20:09;37.45;;;18.25;;
19004;SDS011;9635;52.078;8.648;2022-12-16T04:25:34;49.53;;;18.83;;
19004;SDS011;9635;52.078;8.648;2022-12-16T04:30:39;41.67;;;20.13;;
19004;SDS011;9635;52.078;8.648;2022-12-16T04:35:43;51.78;;;20.88;;
19004;SDS011;9635;52.078;8.648;2022-12-16T04:41:04;46.38;;;20.55;;
19004;SDS011;9635;52.078;8.648;2022-12-16T04:46:25;43.05;;;19.38;;
19004;SDS011;9635;52.078;8.648;2022-12-16T04:51:47;47.85;;;20.38;;
19004;SDS011;9635;52.078;8.648;2022-12-16T04:57:07;48.58;;;20.02;;
19004;SDS011;9635;52.078;8.648;2022-12-16T05:02:27;47.22;;;19.38;;
19004;SDS011;9635;52.078;8.648;2022-12-16T05:08:03;45.22;;;17.83;;
19004;SDS011;9635;52.078;8.648;2022-12-16T05:18:44;39.92;;;18.08;;
19004;SDS011;9635;52.078;8.648;2022-12-16T05:24:20;39.00;;;18.23;;
19004;SDS011;9635;52.078;8.648;2022-12-16T05:29:40;40.75;;;17.95;;
19004;SDS011;9635;52.078;8.648;2022-12-16T05:35:03;37.78;;;17.42;;
19004;SDS011;9635;52.078;8.648;2022-12-16T05:40:25;35.90;;;16.77;;
19004;SDS011;9635;52.078;8.648;2022-12-16T05:51:05;46.08;;;18.45;;
19004;SDS011;9635;52.078;8.648;2022-12-16T05:56:27;37.97;;;17.20;;
19004;SDS011;9635;52.078;8.648;2022-12-16T06:01:47;43.55;;;17.75;;
19004;SDS011;9635;52.078;8.648;2022-12-16T06:07:08;43.80;;;19.00;;
19004;SDS011;9635;52.078;8.648;2022-12-16T06:12:29;40.67;;;18.13;;
19004;SDS011;9635;52.078;8.648;2022-12-16T06:23:10;45.38;;;19.58;;
19004;SDS011;9635;52.078;8.648;2022-12-16T06:28:31;36.38;;;17.73;;
19004;SDS011;9635;52.078;8.648;2022-12-16T06:39:27;39.05;;;17.77;;
19004;SDS011;9635;52.078;8.648;2022-12-16T06:44:54;43.00;;;17.83;;
19004;SDS011;9635;52.078;8.648;2022-12-16T06:50:15;37.40;;;18.60;;
19004;SDS011;9635;52.078;8.648;2022-12-16T06:55:35;42.03;;;18.80;;
19004;SDS011;9635;52.078;8.648;2022-12-16T07:00:57;41.15;;;18.45;;
19004;SDS011;9635;52.078;8.648;2022-12-16T07:11:38;40.85;;;16.60;;
19004;SDS011;9635;52.078;8.648;2022-12-16T07:16:59;39.53;;;18.52;;
19004;SDS011;9635;52.078;8.648;2022-12-16T07:27:43;41.15;;;18.15;;
19004;SDS011;9635;52.078;8.648;2022-12-16T07:33:06;49.85;;;18.17;;
19004;SDS011;9635;52.078;8.648;2022-12-16T07:38:26;43.33;;;17.33;;
19004;SDS011;9635;52.078;8.648;2022-12-16T07:43:46;39.03;;;17.48;;
19004;SDS011;9635;52.078;8.648;2022-12-16T07:49:08;38.40;;;17.20;;
19004;SDS011;9635;52.078;8.648;2022-12-16T07:54:43;63.83;;;24.08;;
19004;SDS011;9635;52.078;8.648;2022-12-16T08:00:03;49.75;;;19.65;;
19004;SDS011;9635;52.078;8.648;2022-12-16T08:05:25;43.90;;;19.83;;
19004;SDS011;9635;52.078;8.648;2022-12-16T08:10:46;49.03;;;27.52;;
19004;SDS011;9635;52.078;8.648;2022-12-16T08:16:06;18.67;;;11.48;;
19004;SDS011;9635;52.078;8.648;2022-12-16T08:21:28;26.85;;;15.38;;
19004;SDS011;9635;52.078;8.648;2022-12-16T08:26:48;31.17;;;14.85;;
19004;SDS011;9635;52.078;8.648;2022-12-16T08:32:08;28.50;;;15.38;;
19004;SDS011;9635;52.078;8.648;2022-12-16T08:37:30;34.03;;;17.88;;
19004;SDS011;9635;52.078;8.648;2022-12-16T08:42:51;41.13;;;18.65;;
19004;SDS011;9635;52.078;8.648;2022-12-16T08:48:13;37.75;;;18.33;;
19004;SDS011;9635;52.078;8.648;2022-12-16T08:58:57;42.33;;;17.85;;
19004;SDS011;9635;52.078;8.648;2022-12-16T09:04:17;37.72;;;18.80;;
19004;SDS011;9635;52.078;8.648;2022-12-16T09:09:39;41.70;;;19.92;;
19004;SDS011;9635;52.078;8.648;2022-12-16T09:14:59;39.77;;;18.70;;
19004;SDS011;9635;52.078;8.648;2022-12-16T09:20:19;41.45;;;20.13;;
19004;SDS011;9635;52.078;8.648;2022-12-16T09:25:41;46.97;;;21.60;;
19004;SDS011;9635;52.078;8.648;2022-12-16T09:31:01;47.38;;;23.60;;
19004;SDS011;9635;52.078;8.648;2022-12-16T09:36:22;46.05;;;23.70;;
19004;SDS011;9635;52.078;8.648;2022-12-16T09:41:44;39.50;;;20.20;;
19004;SDS011;9635;52.078;8.648;2022-12-16T09:47:15;47.03;;;22.30;;
19004;SDS011;9635;52.078;8.648;2022-12-16T09:52:43;44.20;;;22.63;;
19004;SDS011;9635;52.078;8.648;2022-12-16T09:58:08;46.38;;;22.42;;
19004;SDS011;9635;52.078;8.648;2022-12-16T10:03:32;40.50;;;21.00;;
19004;SDS011;9635;52.078;8.648;2022-12-16T10:08:58;43.88;;;22.05;;
19004;SDS011;9635;52.078;8.648;2022-12-16T10:14:27;45.40;;;24.10;;
19004;SDS011;9635;52.078;8.648;2022-12-16T10:19:54;41.65;;;22.05;;
19004;SDS011;9635;52.078;8.648;2022-12-16T10:25:22;42.85;;;22.67;;
19004;SDS011;9635;52.078;8.648;2022-12-16T10:30:49;44.67;;;22.80;;
19004;SDS011;9635;52.078;8.648;2022-12-16T10:36:10;40.13;;;21.33;;
19004;SDS011;9635;52.078;8.648;2022-12-16T10:41:34;41.63;;;23.75;;
19004;SDS011;9635;52.078;8.648;2022-12-16T10:46:58;45.22;;;23.73;;
19004;SDS011;9635;52.078;8.648;2022-12-16T10:52:18;48.80;;;24.07;;
19004;SDS011;9635;52.078;8.648;2022-12-16T10:57:41;35.83;;;19.88;;
19004;SDS011;9635;52.078;8.648;2022-12-16T11:03:18;38.47;;;21.35;;
19004;SDS011;9635;52.078;8.648;2022-12-16T11:08:40;38.03;;;22.17;;
19004;SDS011;9635;52.078;8.648;2022-12-16T11:14:08;33.92;;;20.90;;
19004;SDS011;9635;52.078;8.648;2022-12-16T11:19:36;34.08;;;20.15;;
19004;SDS011;9635;52.078;8.648;2022-12-16T11:25:04;36.78;;;22.15;;
19004;SDS011;9635;52.078;8.648;2022-12-16T11:30:28;40.03;;;21.98;;
19004;SDS011;9635;52.078;8.648;2022-12-16T11:35:51;35.70;;;21.17;;
19004;SDS011;9635;52.078;8.648;2022-12-16T11:41:18;35.20;;;19.67;;
19004;SDS011;9635;52.078;8.648;2022-12-16T11:46:43;33.30;;;19.08;;
19004;SDS011;9635;52.078;8.648;2022-12-16T11:52:07;35.93;;;19.33;;
19004;SDS011;9635;52.078;8.648;2022-12-16T11:57:40;31.52;;;18.92;;
19004;SDS011;9635;52.078;8.648;2022-12-16T12:03:08;28.75;;;17.73;;
19004;SDS011;9635;52.078;8.648;2022-12-16T12:08:34;27.83;;;16.77;;
19004;SDS011;9635;52.078;8.648;2022-12-16T12:14:04;30.15;;;17.38;;
19004;SDS011;9635;52.078;8.648;2022-12-16T12:19:34;26.50;;;17.17;;
19004;SDS011;9635;52.078;8.648;2022-12-16T12:25:06;23.77;;;15.65;;
19004;SDS011;9635;52.078;8.648;2022-12-16T12:30:29;20.17;;;12.88;;
19004;SDS011;9635;52.078;8.648;2022-12-16T12:35:59;19.30;;;11.85;;
19004;SDS011;9635;52.078;8.648;2022-12-16T12:41:26;18.33;;;10.68;;
19004;SDS011;9635;52.078;8.648;2022-12-16T12:46:48;20.85;;;10.07;;
19004;SDS011;9635;52.078;8.648;2022-12-16T12:52:16;17.42;;;9.75;;
19004;SDS011;9635;52.078;8.648;2022-12-16T12:57:47;16.07;;;9.43;;
19004;SDS011;9635;52.078;8.648;2022-12-16T13:03:12;20.65;;;13.77;;
19004;SDS011;9635;52.078;8.648;2022-12-16T13:08:43;26.08;;;14.80;;
19004;SDS011;9635;52.078;8.648;2022-12-16T13:25:57;30.38;;;16.13;;
19004;SDS011;9635;52.078;8.648;2022-12-16T13:31:23;29.58;;;17.10;;
19004;SDS011;9635;52.078;8.648;2022-12-16T13:36:46;30.85;;;16.52;;
19004;SDS011;9635;52.078;8.648;2022-12-16T13:48:24;28.30;;;17.10;;
19004;SDS011;9635;52.078;8.648;2022-12-16T13:53:57;34.33;;;17.63;;
19004;SDS011;9635;52.078;8.648;2022-12-16T13:59:19;29.88;;;16.52;;
19004;SDS011;9635;52.078;8.648;2022-12-16T14:04:42;26.20;;;17.58;;
19004;SDS011;9635;52.078;8.648;2022-12-16T14:10:17;29.45;;;17.73;;
19004;SDS011;9635;52.078;8.648;2022-12-16T14:15:56;37.50;;;17.17;;
19004;SDS011;9635;52.078;8.648;2022-12-16T14:21:22;26.35;;;17.23;;
19004;SDS011;9635;52.078;8.648;2022-12-16T14:26:49;29.13;;;17.70;;
19004;SDS011;9635;52.078;8.648;2022-12-16T14:32:24;29.67;;;17.98;;
19004;SDS011;9635;52.078;8.648;2022-12-16T14:37:47;34.88;;;18.80;;
19004;SDS011;9635;52.078;8.648;2022-12-16T14:43:11;30.80;;;18.98;;
19004;SDS011;9635;52.078;8.648;2022-12-16T14:48:35;30.63;;;18.80;;
19004;SDS011;9635;52.078;8.648;2022-12-16T14:54:08;40.75;;;20.20;;
19004;SDS011;9635;52.078;8.648;2022-12-16T14:59:36;45.08;;;22.35;;
19004;SDS011;9635;52.078;8.648;2022-12-16T15:04:57;37.57;;;21.83;;
19004;SDS011;9635;52.078;8.648;2022-12-16T15:10:17;42.20;;;22.63;;
19004;SDS011;9635;52.078;8.648;2022-12-16T15:15:51;44.88;;;24.42;;
19004;SDS011;9635;52.078;8.648;2022-12-16T15:21:12;49.60;;;24.55;;
19004;SDS011;9635;52.078;8.648;2022-12-16T15:26:33;45.70;;;24.02;;
19004;SDS011;9635;52.078;8.648;2022-12-16T15:31:55;47.63;;;24.90;;
19004;SDS011;9635;52.078;8.648;2022-12-16T15:37:17;46.20;;;26.83;;
19004;SDS011;9635;52.078;8.648;2022-12-16T15:42:40;46.97;;;24.75;;
19004;SDS011;9635;52.078;8.648;2022-12-16T15:48:06;44.03;;;25.65;;
19004;SDS011;9635;52.078;8.648;2022-12-16T15:53:37;48.97;;;26.25;;
19004;SDS011;9635;52.078;8.648;2022-12-16T15:59:11;53.58;;;27.15;;
19004;SDS011;9635;52.078;8.648;2022-12-16T16:04:35;52.40;;;26.30;;
19004;SDS011;9635;52.078;8.648;2022-12-16T16:10:01;51.85;;;28.73;;
19004;SDS011;9635;52.078;8.648;2022-12-16T16:15:27;65.75;;;31.88;;
19004;SDS011;9635;52.078;8.648;2022-12-16T16:20:49;54.10;;;29.48;;
19004;SDS011;9635;52.078;8.648;2022-12-16T16:31:37;58.72;;;31.95;;
19004;SDS011;9635;52.078;8.648;2022-12-16T16:37:10;67.97;;;33.08;;
19004;SDS011;9635;52.078;8.648;2022-12-16T16:42:33;65.10;;;35.50;;
19004;SDS011;9635;52.078;8.648;2022-12-16T16:47:53;96.78;;;48.67;;
19004;SDS011;9635;52.078;8.648;2022-12-16T16:53:31;96.57;;;50.38;;
19004;SDS011;9635;52.078;8.648;2022-12-16T16:58:51;95.28;;;49.03;;
19004;SDS011;9635;52.078;8.648;2022-12-16T17:04:23;92.20;;;46.00;;
19004;SDS011;9635;52.078;8.648;2022-12-16T17:09:45;97.43;;;47.72;;
19004;SDS011;9635;52.078;8.648;2022-12-16T17:15:15;78.23;;;36.77;;
19004;SDS011;9635;52.078;8.648;2022-12-16T17:20:37;61.37;;;31.37;;
19004;SDS011;9635;52.078;8.648;2022-12-16T17:25:58;80.85;;;39.55;;
19004;SDS011;9635;52.078;8.648;2022-12-16T17:31:19;71.87;;;35.60;;
19004;SDS011;9635;52.078;8.648;2022-12-16T17:36:39;71.03;;;34.88;;
19004;SDS011;9635;52.078;8.648;2022-12-16T17:42:01;74.25;;;35.88;;
19004;SDS011;9635;52.078;8.648;2022-12-16T17:47:21;69.32;;;36.03;;
19004;SDS011;9635;52.078;8.648;2022-12-16T17:52:42;71.85;;;35.10;;
19004;SDS011;9635;52.078;8.648;2022-12-16T17:58:03;76.57;;;34.38;;
19004;SDS011;9635;52.078;8.648;2022-12-16T18:03:23;66.37;;;36.10;;
19004;SDS011;9635;52.078;8.648;2022-12-16T18:08:44;71.95;;;36.97;;
19004;SDS011;9635;52.078;8.648;2022-12-16T18:14:05;74.72;;;37.00;;
19004;SDS011;9635;52.078;8.648;2022-12-16T18:19:26;67.25;;;35.35;;
19004;SDS011;9635;52.078;8.648;2022-12-16T18:24:46;77.65;;;36.67;;
19004;SDS011;9635;52.078;8.648;2022-12-16T18:30:09;71.30;;;36.47;;
19004;SDS011;9635;52.078;8.648;2022-12-16T18:35:30;67.50;;;35.15;;
19004;SDS011;9635;52.078;8.648;2022-12-16T18:40:52;68.88;;;35.63;;
19004;SDS011;9635;52.078;8.648;2022-12-16T18:46:21;70.60;;;34.67;;
19004;SDS011;9635;52.078;8.648;2022-12-16T18:51:41;68.25;;;35.72;;
19004;SDS011;9635;52.078;8.648;2022-12-16T18:57:02;70.07;;;34.83;;
19004;SDS011;9635;52.078;8.648;2022-12-16T19:02:24;64.72;;;34.00;;
19004;SDS011;9635;52.078;8.648;2022-12-16T19:07:56;68.53;;;34.42;;
19004;SDS011;9635;52.078;8.648;2022-12-16T19:13:16;65.97;;;34.08;;
19004;SDS011;9635;52.078;8.648;2022-12-16T19:18:38;65.50;;;33.90;;
19004;SDS011;9635;52.078;8.648;2022-12-16T19:23:58;67.87;;;34.83;;
19004;SDS011;9635;52.078;8.648;2022-12-16T19:29:19;78.00;;;39.20;;
19004;SDS011;9635;52.078;8.648;2022-12-16T19:34:40;101.88;;;43.40;;
19004;SDS011;9635;52.078;8.648;2022-12-16T19:40:00;89.73;;;41.90;;
19004;SDS011;9635;52.078;8.648;2022-12-16T19:45:21;89.75;;;43.00;;
19004;SDS011;9635;52.078;8.648;2022-12-16T19:50:43;80.32;;;39.35;;
19004;SDS011;9635;52.078;8.648;2022-12-16T19:56:03;77.10;;;35.28;;
19004;SDS011;9635;52.078;8.648;2022-12-16T20:01:24;62.75;;;31.75;;
19004;SDS011;9635;52.078;8.648;2022-12-16T20:06:46;70.20;;;35.10;;
19004;SDS011;9635;52.078;8.648;2022-12-16T20:12:07;54.83;;;27.23;;
19004;SDS011;9635;52.078;8.648;2022-12-16T20:17:27;64.72;;;34.15;;
19004;SDS011;9635;52.078;8.648;2022-12-16T20:22:49;71.13;;;35.15;;
19004;SDS011;9635;52.078;8.648;2022-12-16T20:28:10;69.68;;;34.80;;
19004;SDS011;9635;52.078;8.648;2022-12-16T20:33:30;76.70;;;37.95;;
19004;SDS011;9635;52.078;8.648;2022-12-16T20:38:53;80.15;;;40.20;;
19004;SDS011;9635;52.078;8.648;2022-12-16T20:44:13;77.03;;;39.30;;
19004;SDS011;9635;52.078;8.648;2022-12-16T20:49:33;72.30;;;39.90;;
19004;SDS011;9635;52.078;8.648;2022-12-16T20:54:57;76.85;;;39.63;;
19004;SDS011;9635;52.078;8.648;2022-12-16T21:00:18;81.90;;;40.47;;
19004;SDS011;9635;52.078;8.648;2022-12-16T21:05:39;75.43;;;39.03;;
19004;SDS011;9635;52.078;8.648;2022-12-16T21:11:01;77.07;;;39.92;;
19004;SDS011;9635;52.078;8.648;2022-12-16T21:16:22;77.78;;;40.33;;
19004;SDS011;9635;52.078;8.648;2022-12-16T21:21:42;95.03;;;47.88;;
19004;SDS011;9635;52.078;8.648;2022-12-16T21:27:05;99.07;;;48.20;;
19004;SDS011;9635;52.078;8.648;2022-12-16T21:32:26;90.43;;;48.58;;
19004;SDS011;9635;52.078;8.648;2022-12-16T21:37:47;98.07;;;48.20;;
19004;SDS011;9635;52.078;8.648;2022-12-16T21:43:08;86.78;;;46.17;;
19004;SDS011;9635;52.078;8.648;2022-12-16T21:48:28;85.67;;;44.03;;
19004;SDS011;9635;52.078;8.648;2022-12-16T21:53:52;81.57;;;43.05;;
19004;SDS011;9635;52.078;8.648;2022-12-16T21:59:13;90.40;;;44.40;;
19004;SDS011;9635;52.078;8.648;2022-12-16T22:04:34;83.07;;;43.50;;
19004;SDS011;9635;52.078;8.648;2022-12-16T22:09:57;80.35;;;43.75;;
19004;SDS011;9635;52.078;8.648;2022-12-16T22:15:19;90.82;;;42.92;;
19004;SDS011;9635;52.078;8.648;2022-12-16T22:31:50;76.10;;;41.90;;
19004;SDS011;9635;52.078;8.648;2022-12-16T22:37:11;81.45;;;40.58;;
19004;SDS011;9635;52.078;8.648;2022-12-16T22:42:32;75.07;;;39.67;;
19004;SDS011;9635;52.078;8.648;2022-12-16T22:47:54;75.80;;;39.20;;
19004;SDS011;9635;52.078;8.648;2022-12-16T22:53:16;81.47;;;39.72;;
19004;SDS011;9635;52.078;8.648;2022-12-16T22:58:37;82.07;;;41.25;;
19004;SDS011;9635;52.078;8.648;2022-12-16T23:03:59;78.45;;;40.83;;
19004;SDS011;9635;52.078;8.648;2022-12-16T23:09:20;79.07;;;39.65;;
19004;SDS011;9635;52.078;8.648;2022-12-16T23:14:41;76.22;;;40.65;;
19004;SDS011;9635;52.078;8.648;2022-12-16T23:20:04;82.75;;;39.28;;
19004;SDS011;9635;52.078;8.648;2022-12-16T23:25:34;77.80;;;38.93;;
19004;SDS011;9635;52.078;8.648;2022-12-16T23:30:57;81.53;;;38.28;;
19004;SDS011;9635;52.078;8.648;2022-12-16T23:36:19;77.88;;;37.92;;
19004;SDS011;9635;52.078;8.648;2022-12-16T23:41:40;89.93;;;41.05;;
19004;SDS011;9635;52.078;8.648;2022-12-16T23:47:10;95.97;;;43.40;;
19004;SDS011;9635;52.078;8.648;2022-12-16T23:52:31;94.72;;;43.80;;
19004;SDS011;9635;52.078;8.648;2022-12-16T23:58:01;89.72;;;42.05;;
